Ride Results

Upper Natone (02-03-2018)
Ride distance: 80.0 km

Outcomes - Upper Natone (02-03-2018)
Division No. of Entries Retired / DNE Completed Withdrawn Ineligible V/O Percentage Completed
HW 3 - 3 - - - 100.00%
MW 10 - 7 - - 3 70.00%
LW 8 - 8 - - - 100.00%
JN 3 - 3 - - - 100.00%
Totals 24 - 21 - - 3 87.50%
Results - Upper Natone (02-03-2018)
No. Rider Horse Place Time Leg Speeds Total
Km/Hr
H/R bpm
Heavyweight
272 Greg Cowen Rokewood Calgary 1 (BC) 6:28:00 14.2, 10.9 12.37 43, 47, 58 (Avg:52)
194 Robby Walsh Sno- Flake 2 7:10:00 12.4, 10.0 11.16 38, 51, 52 (Avg:51)
325 Ian Sims Quintally Spiderman 3 7:37:00 11.0, 10.0 10.50 43, 52, 50 (Avg:51)
Middleweight
180 Nicole Ford El- Zarka 1 (BC) 5:41:00 14.3, 13.7 14.08 40, 42, 36 (Avg:39)
331 Sarah Spencer Ravel 2 6:19:00 13.1, 12.1 12.66 35, 43, 51 (Avg:47)
12 Anita Hutchins AT Dial Range Sam 3 6:21:00 12.2, 12.9 12.60 31, 42, 53 (Avg:47)
333 Rebecca Ainslie Bob Oscar Bashir 4 6:32:00 13.1, 11.4 12.24 39, 45, 53 (Avg:49)
136 Kaye Mitchell Beer Street Aslan T B 5 6:59:00 11.9, 11.0 11.46 38, 45, 42 (Avg:43)
38 Tony Purton Beer Street Wicca Moon 5 6:59:00 11.9, 11.0 11.46 35, 39, 51 (Avg:45)
92 Blaine Astell Rose Gum Tolstoy 7 7:16:00 11.2, 10.7 11.01 30, 41, 40 (Avg:40)
179 Debbie Grull Highland View Chelsea Lame L2 0:00:00 11.0, 11.3 - 45, 49, 50 (Avg:49)
276 Naomi Maxwell Highland View Dominican Lame L2 0:00:00 11.0, 11.3 - 55, 49, 53 (Avg:51)
212 Rhys Waterhouse Lark Rise Texas Heart Rate L1 0:00:00 10.9 - 40, 59 (Avg:59)
Lightweight
57 Tania Jago Rivergum Ripper 1 6:00:00 14.4, 12.3 13.33 33, 39, 48 (Avg:43)
253 Kelly Woodhouse Rivergum High Serenity 1 (BC) 6:00:00 14.4, 12.3 13.33 37, 39, 42 (Avg:40)
292 Holli Anthony OToole AT Dial Range Bill 3 6:21:00 12.2, 12.9 12.60 34, 40, 48 (Avg:44)
328 Megan Finn Wendy Lalani 3 6:21:00 12.5, 12.6 12.60 37, 52, 57 (Avg:54)
21 Karen Quinn Bacchante Azzaro 5 7:03:00 12.3, 10.4 11.35 36, 48, 49 (Avg:48)
191 Rachel Bennett Highland View Mustang Sally 6 7:09:00 11.0, 11.3 11.19 46, 47, 58 (Avg:52)
66 Lynette Walker Vandieman Tyrant 6 7:09:00 11.0, 11.3 11.19 37, 44, 48 (Avg:46)
90 Angela Hawks Count Yianni 8 7:16:00 11.2, 10.7 11.01 36, 47, 53 (Avg:50)
Junior
113 Kirstie Lockhart Razara Momentum 1 (BC) 4:54:00 17.1, 15.5 16.33 34, 40, 46 (Avg:43)
260 Laura Febey Rocky 2 5:41:00 14.8, 13.4 14.08 34, 49, 46 (Avg:47)
127 Jaz Hutchins AT Dial Range Dami 3 6:21:00 12.2, 12.9 12.60 39, 41, 47 (Avg:44)